createdAt,value
2018-10-05T00:02:16.331Z,17.07
2018-10-05T00:04:45.572Z,17.60
2018-10-05T00:07:14.679Z,18.60
2018-10-05T00:09:43.447Z,16.77
2018-10-05T00:12:12.258Z,20.27
2018-10-05T00:14:41.602Z,17.63
2018-10-05T00:17:10.388Z,16.70
2018-10-05T00:19:39.234Z,17.47
2018-10-05T00:22:08.013Z,16.97
2018-10-05T00:24:36.833Z,18.47
2018-10-05T00:27:05.831Z,19.20
2018-10-05T00:29:35.079Z,19.43
2018-10-05T00:32:03.877Z,17.40
2018-10-05T00:34:32.800Z,17.90
2018-10-05T00:37:01.843Z,19.27
2018-10-05T00:39:30.755Z,21.10
2018-10-05T00:42:00.023Z,19.60
2018-10-05T00:44:29.099Z,19.13
2018-10-05T00:46:57.934Z,19.03
2018-10-05T00:49:26.943Z,19.73
2018-10-05T00:51:55.788Z,20.40
2018-10-05T00:54:24.809Z,18.83
2018-10-05T00:56:53.974Z,19.30
2018-10-05T00:59:25.848Z,20.17
2018-10-05T01:01:54.637Z,19.27
2018-10-05T01:04:23.441Z,18.30
2018-10-05T01:06:52.577Z,19.60
2018-10-05T01:09:21.988Z,19.70
2018-10-05T01:11:50.815Z,21.70
2018-10-05T01:14:19.822Z,19.93
2018-10-05T01:16:49.377Z,21.10
2018-10-05T01:19:18.476Z,20.40
2018-10-05T01:21:47.267Z,20.83
2018-10-05T01:24:16.562Z,20.80
2018-10-05T01:26:45.608Z,21.73
2018-10-05T01:29:14.634Z,22.60
2018-10-05T01:31:43.489Z,21.67
2018-10-05T01:34:12.241Z,21.37
2018-10-05T01:36:41.106Z,22.43
2018-10-05T01:39:10.405Z,23.07
2018-10-05T01:41:40.003Z,22.30
2018-10-05T01:44:08.973Z,22.97
2018-10-05T01:46:38.137Z,22.83
2018-10-05T01:49:06.941Z,22.40
2018-10-05T01:51:37.780Z,24.00
2018-10-05T01:54:07.644Z,22.10
2018-10-05T01:56:36.940Z,20.63
2018-10-05T01:59:06.322Z,23.67
2018-10-05T02:01:35.446Z,22.70
2018-10-05T02:04:04.327Z,22.73
2018-10-05T02:06:33.146Z,21.27
2018-10-05T02:09:02.076Z,21.87
2018-10-05T02:11:31.203Z,22.93
2018-10-05T02:14:00.162Z,23.00
2018-10-05T02:16:29.335Z,22.07
2018-10-05T02:18:58.611Z,23.80
2018-10-05T02:21:28.004Z,23.57
2018-10-05T02:23:57.282Z,24.47
2018-10-05T02:26:26.585Z,21.57
2018-10-05T02:28:55.414Z,22.10
2018-10-05T02:31:24.629Z,23.57
2018-10-05T02:33:54.003Z,21.87
2018-10-05T02:36:22.805Z,23.00
2018-10-05T02:38:51.689Z,21.57
2018-10-05T02:41:20.504Z,20.33
2018-10-05T02:43:49.375Z,22.23
2018-10-05T02:46:18.194Z,21.30
2018-10-05T02:48:47.303Z,20.80
2018-10-05T02:51:16.626Z,20.90
2018-10-05T02:53:45.828Z,21.87
2018-10-05T02:56:14.817Z,20.40
2018-10-05T02:58:43.899Z,19.83
2018-10-05T03:01:23.837Z,19.80
2018-10-05T03:03:53.556Z,23.03
2018-10-05T03:06:22.485Z,20.00
2018-10-05T03:08:51.330Z,19.57
2018-10-05T03:11:20.376Z,18.70
2018-10-05T03:13:49.229Z,19.43
2018-10-05T03:16:18.135Z,18.90
2018-10-05T03:18:47.859Z,22.03
2018-10-05T03:21:17.191Z,19.20
2018-10-05T03:23:46.228Z,19.10
2018-10-05T03:26:15.153Z,20.03
2018-10-05T03:28:44.066Z,19.00
2018-10-05T03:31:12.907Z,17.97
2018-10-05T03:33:42.446Z,19.30
2018-10-05T03:36:11.841Z,20.70
2018-10-05T03:38:40.731Z,19.10
2018-10-05T03:41:09.651Z,18.70
2018-10-05T03:43:38.592Z,18.40
2018-10-05T03:46:08.035Z,19.43
2018-10-05T03:48:36.993Z,16.50
2018-10-05T03:51:06.011Z,15.60
2018-10-05T03:53:34.938Z,17.70
2018-10-05T03:56:04.244Z,16.90
2018-10-05T03:58:33.025Z,16.40
2018-10-05T04:01:02.076Z,17.57
2018-10-05T04:03:31.133Z,16.30
2018-10-05T04:05:59.942Z,15.70
2018-10-05T04:08:28.766Z,17.50
2018-10-05T04:10:58.023Z,16.73
2018-10-05T04:13:26.946Z,17.40
2018-10-05T04:15:55.849Z,15.53
2018-10-05T04:18:24.971Z,16.77
2018-10-05T04:20:54.249Z,17.60
2018-10-05T04:23:23.162Z,17.17
2018-10-05T04:25:52.263Z,16.47
2018-10-05T04:28:21.053Z,15.50
2018-10-05T04:30:49.937Z,17.50
2018-10-05T04:33:19.518Z,15.83
2018-10-05T04:35:48.771Z,16.27
2018-10-05T04:38:18.031Z,15.97
2018-10-05T04:40:46.995Z,16.93
2018-10-05T04:43:15.864Z,16.43
2018-10-05T04:45:44.719Z,15.57
2018-10-05T04:48:13.893Z,17.10
2018-10-05T04:50:43.123Z,16.73
2018-10-05T04:53:18.752Z,16.17
2018-10-05T04:55:47.675Z,16.67
2018-10-05T04:58:17.223Z,14.83
2018-10-05T05:00:46.953Z,17.60
2018-10-05T05:03:17.537Z,16.90
2018-10-05T05:05:46.703Z,16.43
2018-10-05T05:08:15.954Z,17.20
2018-10-05T05:10:44.804Z,16.10
2018-10-05T05:13:14.081Z,16.83
2018-10-05T05:15:44.810Z,16.43
2018-10-05T05:18:13.718Z,16.33
2018-10-05T05:20:43.295Z,16.70
2018-10-05T05:23:12.997Z,17.70
2018-10-05T05:25:42.317Z,18.00
2018-10-05T05:28:13.130Z,17.80
2018-10-05T05:30:41.945Z,16.57
2018-10-05T05:33:11.176Z,16.17
2018-10-05T05:35:40.282Z,16.77
2018-10-05T05:38:09.335Z,14.97
2018-10-05T05:40:38.852Z,17.40
2018-10-05T05:43:07.699Z,16.67
2018-10-05T05:45:36.580Z,17.93
2018-10-05T05:48:05.422Z,17.93
2018-10-05T05:50:35.110Z,17.30
2018-10-05T05:53:03.891Z,19.27
2018-10-05T05:55:33.560Z,18.30
2018-10-05T05:58:02.803Z,18.60
2018-10-05T06:00:31.946Z,19.43
2018-10-05T06:03:02.188Z,19.90
2018-10-05T06:05:31.602Z,18.40
2018-10-05T06:08:00.476Z,19.50
2018-10-05T06:10:29.296Z,19.07
2018-10-05T06:12:58.126Z,18.70
2018-10-05T06:15:27.259Z,19.50
2018-10-05T06:17:56.089Z,20.40
2018-10-05T06:20:25.289Z,17.93
2018-10-05T06:22:54.527Z,19.70
2018-10-05T06:25:23.350Z,18.83
2018-10-05T06:27:52.144Z,17.43
2018-10-05T06:30:21.181Z,20.33
2018-10-05T06:32:50.383Z,19.00
2018-10-05T06:35:19.537Z,19.70
2018-10-05T06:37:48.838Z,19.80
2018-10-05T06:40:18.013Z,19.50
2018-10-05T06:42:46.891Z,22.17
2018-10-05T06:45:16.416Z,20.60
2018-10-05T06:47:45.464Z,20.43
2018-10-05T06:50:14.350Z,17.93
2018-10-05T06:52:43.448Z,19.83
2018-10-05T06:55:12.535Z,18.13
2018-10-05T06:57:41.312Z,19.20
2018-10-05T07:00:10.107Z,21.10
2018-10-05T07:02:39.060Z,20.10
2018-10-05T07:05:08.444Z,20.40
2018-10-05T07:07:37.628Z,17.37
2018-10-05T07:10:06.431Z,17.40
2018-10-05T07:12:35.178Z,18.73
2018-10-05T07:15:03.982Z,18.80
2018-10-05T07:17:32.807Z,19.40
2018-10-05T07:20:01.983Z,18.03
2018-10-05T07:22:31.243Z,18.33
2018-10-05T07:25:00.151Z,17.20
2018-10-05T07:27:29.011Z,16.27
2018-10-05T07:29:57.975Z,17.90
2018-10-05T07:32:37.985Z,17.03
2018-10-05T07:35:08.951Z,17.60
2018-10-05T07:37:38.040Z,15.53
2018-10-05T07:40:07.589Z,17.40
2018-10-05T07:42:49.599Z,16.40
2018-10-05T07:45:18.953Z,16.67
2018-10-05T07:47:47.851Z,18.20
2018-10-05T07:50:17.314Z,17.63
2018-10-05T07:52:47.164Z,17.53
2018-10-05T07:55:16.011Z,15.70
2018-10-05T07:57:45.157Z,16.13
2018-10-05T08:00:15.604Z,15.07
2018-10-05T08:02:45.902Z,19.60
2018-10-05T08:05:14.654Z,16.17
2018-10-05T08:07:43.683Z,18.30
2018-10-05T08:10:12.550Z,16.37
2018-10-05T08:12:41.322Z,16.57
2018-10-05T08:15:10.460Z,13.60
2018-10-05T08:17:39.289Z,16.00
2018-10-05T08:20:08.129Z,14.90
2018-10-05T08:22:37.033Z,16.33
2018-10-05T08:25:07.248Z,15.10
2018-10-05T08:27:36.429Z,16.07
2018-10-05T08:30:06.204Z,15.10
2018-10-05T08:32:36.039Z,14.83
2018-10-05T08:35:04.840Z,15.53
2018-10-05T08:37:33.892Z,14.17
2018-10-05T08:40:02.711Z,13.83
2018-10-05T08:42:31.806Z,12.30
2018-10-05T08:45:00.723Z,13.97
2018-10-05T08:47:29.744Z,14.00
2018-10-05T08:49:58.946Z,12.73
2018-10-05T08:52:27.745Z,15.60
2018-10-05T08:54:56.845Z,13.93
2018-10-05T08:57:25.615Z,14.30
2018-10-05T08:59:54.813Z,11.30
2018-10-05T09:02:24.934Z,12.60
2018-10-05T09:04:54.448Z,12.70
2018-10-05T09:07:23.524Z,12.57
2018-10-05T09:09:52.919Z,13.00
2018-10-05T09:12:21.739Z,11.83
2018-10-05T09:14:50.885Z,13.00
2018-10-05T09:17:19.730Z,14.60
2018-10-05T09:19:48.627Z,13.70
2018-10-05T09:22:17.456Z,12.03
2018-10-05T09:24:46.813Z,14.87
2018-10-05T09:27:15.981Z,12.70
2018-10-05T09:29:44.936Z,12.43
2018-10-05T09:32:13.836Z,12.43
2018-10-05T09:34:42.668Z,12.07
2018-10-05T09:37:11.540Z,13.40
2018-10-05T09:39:40.490Z,12.10
2018-10-05T09:42:09.605Z,11.70
2018-10-05T09:44:38.494Z,12.23
2018-10-05T09:47:07.925Z,11.90
2018-10-05T09:49:37.838Z,11.33
2018-10-05T09:52:06.833Z,11.03
2018-10-05T09:54:36.087Z,12.20
2018-10-05T09:57:04.915Z,11.47
2018-10-05T09:59:34.085Z,12.73
2018-10-05T10:02:08.119Z,10.43
2018-10-05T10:04:36.974Z,10.80
2018-10-05T10:07:05.762Z,11.23
2018-10-05T10:09:34.992Z,10.50
2018-10-05T10:12:03.985Z,11.40
2018-10-05T10:14:32.810Z,10.80
2018-10-05T10:17:02.040Z,9.43
2018-10-05T10:19:31.307Z,11.17
2018-10-05T10:22:00.364Z,9.97
2018-10-05T10:24:29.492Z,10.07
2018-10-05T10:26:58.411Z,10.90
2018-10-05T10:29:27.259Z,9.70
2018-10-05T10:31:56.448Z,10.20
2018-10-05T10:34:25.883Z,9.80
2018-10-05T10:36:54.741Z,10.20
2018-10-05T10:39:23.812Z,9.40
2018-10-05T10:41:52.942Z,10.30
2018-10-05T10:44:22.172Z,9.60
2018-10-05T10:46:50.978Z,10.60
2018-10-05T10:49:20.681Z,9.33
2018-10-05T10:51:55.677Z,8.83
2018-10-05T10:54:24.489Z,8.97
2018-10-05T10:56:53.374Z,9.33
2018-10-05T10:59:22.191Z,10.60
2018-10-05T11:01:51.002Z,9.30
2018-10-05T11:04:20.527Z,9.80
2018-10-05T11:06:49.590Z,9.10
2018-10-05T11:09:18.367Z,9.70
2018-10-05T11:11:47.206Z,9.63
2018-10-05T11:14:15.986Z,8.40
2018-10-05T11:16:45.050Z,9.10
2018-10-05T11:19:13.836Z,8.43
2018-10-05T11:21:43.066Z,8.00
2018-10-05T11:24:12.195Z,8.57
2018-10-05T11:26:41.324Z,9.50
2018-10-05T11:29:10.107Z,8.17
2018-10-05T11:31:38.979Z,8.40
2018-10-05T11:34:07.688Z,8.63
2018-10-05T11:36:36.810Z,8.50
2018-10-05T11:39:06.479Z,7.77
2018-10-05T11:41:35.537Z,9.07
2018-10-05T11:44:04.996Z,7.17
2018-10-05T11:46:33.882Z,7.63
2018-10-05T11:49:03.232Z,8.17
2018-10-05T11:51:32.065Z,8.50
2018-10-05T11:54:00.896Z,8.17
2018-10-05T11:56:30.242Z,8.53
2018-10-05T11:58:59.595Z,7.77
2018-10-05T12:01:28.545Z,8.60
2018-10-05T12:03:57.330Z,7.83
2018-10-05T12:06:26.332Z,7.43
2018-10-05T12:08:55.578Z,9.70
2018-10-05T12:11:24.622Z,7.50
2018-10-05T12:13:53.702Z,9.17
2018-10-05T12:16:22.781Z,8.43
2018-10-05T12:18:51.766Z,8.83
2018-10-05T12:21:20.556Z,8.80
2018-10-05T12:23:49.790Z,8.53
2018-10-05T12:26:18.591Z,8.03
2018-10-05T12:28:47.414Z,8.70
2018-10-05T12:31:16.559Z,8.50
2018-10-05T12:33:45.555Z,7.73
2018-10-05T12:36:14.343Z,7.40
2018-10-05T12:38:43.477Z,7.53
2018-10-05T12:41:12.288Z,8.10
2018-10-05T12:43:41.446Z,7.07
2018-10-05T12:46:10.450Z,7.73
2018-10-05T12:48:39.221Z,7.80
2018-10-05T12:51:08.394Z,7.37
2018-10-05T12:53:37.220Z,6.97
2018-10-05T12:56:05.997Z,7.53
2018-10-05T12:58:34.746Z,6.70
2018-10-05T13:01:03.836Z,6.67
2018-10-05T13:03:32.683Z,7.67
2018-10-05T13:06:01.494Z,6.90
2018-10-05T13:08:30.631Z,7.30
2018-10-05T13:11:00.462Z,6.43
2018-10-05T13:13:29.712Z,7.10
2018-10-05T13:15:58.480Z,7.17
2018-10-05T13:18:28.078Z,7.70
2018-10-05T13:20:57.148Z,7.80
2018-10-05T13:23:26.121Z,8.13
2018-10-05T13:25:55.568Z,8.03
2018-10-05T13:28:24.910Z,6.43
2018-10-05T13:30:53.654Z,7.57
2018-10-05T13:33:22.446Z,7.10
2018-10-05T13:35:51.242Z,7.30
2018-10-05T13:38:20.214Z,7.37
2018-10-05T13:40:49.353Z,6.33
2018-10-05T13:43:18.195Z,6.03
2018-10-05T13:45:47.333Z,5.10
2018-10-05T13:48:16.870Z,5.20
2018-10-05T13:50:45.976Z,5.40
2018-10-05T13:53:14.962Z,5.67
2018-10-05T13:55:44.106Z,5.27
2018-10-05T13:58:13.195Z,4.57
2018-10-05T14:00:41.985Z,4.33
2018-10-05T14:03:10.855Z,5.43
2018-10-05T14:05:39.599Z,4.90
2018-10-05T14:08:08.463Z,4.50
2018-10-05T14:10:37.794Z,4.20
2018-10-05T14:13:06.049Z,5.10
2018-10-05T14:15:34.836Z,4.33
2018-10-05T14:18:04.128Z,4.30
2018-10-05T14:20:33.183Z,4.10
2018-10-05T14:23:02.279Z,2.97
2018-10-05T14:25:31.514Z,3.77
2018-10-05T14:28:00.283Z,4.07
2018-10-05T14:30:30.702Z,3.87
2018-10-05T14:32:59.446Z,4.30
2018-10-05T14:35:29.310Z,3.67
2018-10-05T14:37:58.102Z,3.17
2018-10-05T14:40:27.304Z,3.20
2018-10-05T14:42:56.065Z,3.10
2018-10-05T14:45:24.880Z,3.80
2018-10-05T14:47:53.700Z,3.10
2018-10-05T14:50:22.796Z,3.43
2018-10-05T14:52:51.818Z,3.47
2018-10-05T14:55:20.767Z,2.60
2018-10-05T14:57:49.536Z,3.07
2018-10-05T15:00:18.609Z,3.50
2018-10-05T15:02:47.723Z,3.30
2018-10-05T15:05:16.605Z,2.57
2018-10-05T15:07:45.448Z,2.80
2018-10-05T15:10:14.297Z,3.30
2018-10-05T15:12:43.426Z,2.63
2018-10-05T15:15:12.494Z,2.70
2018-10-05T15:17:41.305Z,2.50
2018-10-05T15:20:10.499Z,2.30
2018-10-05T15:22:39.579Z,3.50
2018-10-05T15:25:08.343Z,3.30
2018-10-05T15:27:37.358Z,3.10
2018-10-05T15:30:06.545Z,3.10
2018-10-05T15:32:35.418Z,2.70
2018-10-05T15:35:04.620Z,3.60
2018-10-05T15:37:33.747Z,3.53
2018-10-05T15:40:02.768Z,3.50
2018-10-05T15:42:31.555Z,2.97
2018-10-05T15:45:00.381Z,2.80
2018-10-05T15:47:29.461Z,2.47
2018-10-05T15:49:58.271Z,2.83
2018-10-05T15:52:27.007Z,3.80
2018-10-05T15:54:56.170Z,3.20
2018-10-05T15:57:25.282Z,2.57
2018-10-05T15:59:54.589Z,3.00
2018-10-05T16:02:23.671Z,2.30
2018-10-05T16:04:52.440Z,2.37
2018-10-05T16:07:22.300Z,3.60
2018-10-05T16:09:51.090Z,3.10
2018-10-05T16:12:20.005Z,2.70
2018-10-05T16:14:48.756Z,4.23
2018-10-05T16:17:17.799Z,3.80
2018-10-05T16:19:46.658Z,3.50
2018-10-05T16:22:15.450Z,2.87
2018-10-05T16:24:45.246Z,3.57
2018-10-05T16:27:14.726Z,3.13
2018-10-05T16:29:43.872Z,4.57
2018-10-05T16:32:13.150Z,3.40
2018-10-05T16:34:42.526Z,3.40
2018-10-05T16:37:12.652Z,3.10
2018-10-05T16:39:41.418Z,2.90
2018-10-05T16:42:11.602Z,3.97
2018-10-05T16:44:40.413Z,3.17
2018-10-05T16:47:09.513Z,3.30
2018-10-05T16:49:38.361Z,3.97
2018-10-05T16:52:07.739Z,4.40
2018-10-05T16:54:36.570Z,4.10
2018-10-05T16:57:05.655Z,4.30
2018-10-05T16:59:34.473Z,3.80
2018-10-05T17:02:03.875Z,4.20
2018-10-05T17:04:32.714Z,4.73
2018-10-05T17:07:01.525Z,3.80
2018-10-05T17:09:30.712Z,3.80
2018-10-05T17:11:59.438Z,4.60
2018-10-05T17:14:28.586Z,5.10
2018-10-05T17:16:57.393Z,5.47
2018-10-05T17:19:26.128Z,4.07
2018-10-05T17:21:55.344Z,4.70
2018-10-05T17:24:24.188Z,4.30
2018-10-05T17:26:53.560Z,3.43
2018-10-05T17:29:22.545Z,4.03
2018-10-05T17:31:54.024Z,4.80
2018-10-05T17:34:26.611Z,5.20
2018-10-05T17:36:55.376Z,5.20
2018-10-05T17:39:24.194Z,6.03
2018-10-05T17:41:53.119Z,6.33
2018-10-05T17:44:21.953Z,8.53
2018-10-05T17:46:51.310Z,10.90
2018-10-05T17:49:20.350Z,8.20
2018-10-05T17:51:51.473Z,9.30
2018-10-05T17:54:20.647Z,13.63
2018-10-05T17:56:49.502Z,19.27
2018-10-05T17:59:18.645Z,14.30
2018-10-05T18:01:54.527Z,13.90
2018-10-05T18:04:23.727Z,11.20
2018-10-05T18:06:58.789Z,10.23
2018-10-05T18:09:27.690Z,9.33
2018-10-05T18:11:58.102Z,8.80
2018-10-05T18:14:27.785Z,7.03
2018-10-05T18:16:56.692Z,9.00
2018-10-05T18:19:25.467Z,5.93
2018-10-05T18:21:54.258Z,6.33
2018-10-05T18:24:23.096Z,6.13
2018-10-05T18:26:51.973Z,5.60
2018-10-05T18:29:20.879Z,5.60
2018-10-05T18:31:50.285Z,5.87
2018-10-05T18:34:19.311Z,5.30
2018-10-05T18:36:48.179Z,5.50
2018-10-05T18:39:17.433Z,6.43
2018-10-05T18:41:46.304Z,5.30
2018-10-05T18:44:15.140Z,4.90
2018-10-05T18:46:44.188Z,4.87
2018-10-05T18:49:13.594Z,6.77
2018-10-05T18:51:43.035Z,9.90
2018-10-05T18:54:11.869Z,7.00
2018-10-05T18:56:51.917Z,6.00
2018-10-05T18:59:20.690Z,6.60
2018-10-05T19:01:49.784Z,7.20
2018-10-05T19:04:18.929Z,7.07
2018-10-05T19:06:48.474Z,5.90
2018-10-05T19:09:17.309Z,6.77
2018-10-05T19:11:46.462Z,6.00
2018-10-05T19:14:15.255Z,6.30
2018-10-05T19:16:44.070Z,6.17
2018-10-05T19:19:13.394Z,6.13
2018-10-05T19:21:42.305Z,6.10
2018-10-05T19:24:11.333Z,5.93
2018-10-05T19:26:40.152Z,5.70
2018-10-05T19:29:09.975Z,5.83
2018-10-05T19:31:38.977Z,5.73
2018-10-05T19:34:14.758Z,5.90
2018-10-05T19:36:44.087Z,5.00
2018-10-05T19:39:13.314Z,5.20
2018-10-05T19:41:42.381Z,6.83
2018-10-05T19:44:11.589Z,5.40
2018-10-05T19:46:40.693Z,5.43
2018-10-05T19:49:09.547Z,5.90
2018-10-05T19:51:38.346Z,6.67
2018-10-05T19:54:07.274Z,5.40
2018-10-05T19:56:36.445Z,7.13
2018-10-05T19:59:05.226Z,5.27
2018-10-05T20:01:34.031Z,5.93
2018-10-05T20:04:02.892Z,4.90
2018-10-05T20:06:31.783Z,7.20
2018-10-05T20:09:01.164Z,5.33
2018-10-05T20:11:30.761Z,6.10
2018-10-05T20:13:59.597Z,5.80
2018-10-05T20:16:28.588Z,6.93
2018-10-05T20:18:58.147Z,7.10
2018-10-05T20:21:27.170Z,7.87
2018-10-05T20:23:56.548Z,7.20
2018-10-05T20:26:25.393Z,6.20
2018-10-05T20:28:55.762Z,6.87
2018-10-05T20:31:24.589Z,6.37
2018-10-05T20:33:53.538Z,5.83
2018-10-05T20:36:23.065Z,6.60
2018-10-05T20:38:52.060Z,7.27
2018-10-05T20:41:21.378Z,7.60
2018-10-05T20:43:50.436Z,8.50
2018-10-05T20:46:19.636Z,7.80
2018-10-05T20:48:48.761Z,7.53
2018-10-05T20:51:17.886Z,8.53
2018-10-05T20:53:46.930Z,7.97
2018-10-05T20:56:16.566Z,8.07
2018-10-05T20:58:45.444Z,8.47
2018-10-05T21:01:14.855Z,9.63
2018-10-05T21:03:43.946Z,9.80
2018-10-05T21:06:12.844Z,8.90
2018-10-05T21:08:41.627Z,8.30
2018-10-05T21:11:10.754Z,9.63
2018-10-05T21:13:39.657Z,7.97
2018-10-05T21:16:09.071Z,8.03
2018-10-05T21:18:38.149Z,7.00
2018-10-05T21:21:07.237Z,7.03
2018-10-05T21:23:36.199Z,6.90
2018-10-05T21:26:05.497Z,7.47
2018-10-05T21:28:34.363Z,7.70
2018-10-05T21:31:04.223Z,8.37
2018-10-05T21:33:33.308Z,6.93
2018-10-05T21:36:02.353Z,7.77
2018-10-05T21:38:31.505Z,7.93
2018-10-05T21:41:00.542Z,6.90
2018-10-05T21:43:29.367Z,8.00
2018-10-05T21:45:58.483Z,5.83
2018-10-05T21:48:27.693Z,6.67
2018-10-05T21:50:56.636Z,7.10
2018-10-05T21:53:26.471Z,6.87
2018-10-05T21:55:56.913Z,7.40
2018-10-05T21:58:25.684Z,7.63
2018-10-05T22:00:54.563Z,7.67
2018-10-05T22:03:23.354Z,7.70
2018-10-05T22:05:52.124Z,7.27
2018-10-05T22:08:21.039Z,7.50
2018-10-05T22:10:49.873Z,9.57
2018-10-05T22:13:18.975Z,9.13
2018-10-05T22:15:48.174Z,8.10
2018-10-05T22:18:17.378Z,8.20
2018-10-05T22:20:46.315Z,7.67
2018-10-05T22:23:15.905Z,7.50
2018-10-05T22:25:44.746Z,7.93
2018-10-05T22:28:13.629Z,8.80
2018-10-05T22:30:42.914Z,8.20
2018-10-05T22:33:12.342Z,7.20
2018-10-05T22:35:42.371Z,7.57
2018-10-05T22:38:12.307Z,7.30
2018-10-05T22:40:42.447Z,7.80
2018-10-05T22:43:11.733Z,7.43
2018-10-05T22:45:41.029Z,7.60
2018-10-05T22:48:10.119Z,8.30
2018-10-05T22:50:39.073Z,7.80
2018-10-05T22:53:08.373Z,9.33
2018-10-05T22:55:37.700Z,7.60
2018-10-05T22:58:06.597Z,6.90
2018-10-05T23:00:35.515Z,6.70
2018-10-05T23:03:06.487Z,8.30
2018-10-05T23:05:35.543Z,7.50
2018-10-05T23:08:04.852Z,7.30
2018-10-05T23:10:34.170Z,7.67
2018-10-05T23:13:03.289Z,7.83
2018-10-05T23:15:32.479Z,6.80
2018-10-05T23:18:01.612Z,7.23
2018-10-05T23:20:30.828Z,6.70
2018-10-05T23:23:00.362Z,6.80
2018-10-05T23:25:35.700Z,6.10
2018-10-05T23:28:04.745Z,6.17
2018-10-05T23:30:33.875Z,5.80
2018-10-05T23:33:03.228Z,6.53
2018-10-05T23:35:32.192Z,5.77
2018-10-05T23:38:01.063Z,6.33
2018-10-05T23:40:30.236Z,5.57
2018-10-05T23:42:59.574Z,6.03
2018-10-05T23:45:28.754Z,6.73
2018-10-05T23:47:57.784Z,5.97
2018-10-05T23:50:26.859Z,6.30
2018-10-05T23:52:55.813Z,5.27
2018-10-05T23:55:24.916Z,6.17
2018-10-05T23:57:53.657Z,6.20
